sensor_id;sensor_type;location;lat;lon;timestamp;pressure;altitude;pressure_sealevel;temperature;humidity
29247;BME280;16272;48.188;9.964;2023-04-27T00:02:06;95822.28;;;6.00;70.55
29247;BME280;16272;48.188;9.964;2023-04-27T00:04:32;95822.53;;;5.41;73.05
29247;BME280;16272;48.188;9.964;2023-04-27T00:06:57;95824.22;;;5.64;71.82
29247;BME280;16272;48.188;9.964;2023-04-27T00:09:22;95820.81;;;5.85;69.63
29247;BME280;16272;48.188;9.964;2023-04-27T00:11:48;95823.25;;;5.31;72.75
29247;BME280;16272;48.188;9.964;2023-04-27T00:14:13;95821.91;;;5.26;74.57
29247;BME280;16272;48.188;9.964;2023-04-27T00:16:38;95822.75;;;5.38;73.45
29247;BME280;16272;48.188;9.964;2023-04-27T00:19:03;95820.59;;;5.54;72.00
29247;BME280;16272;48.188;9.964;2023-04-27T00:21:29;95819.53;;;5.68;70.63
29247;BME280;16272;48.188;9.964;2023-04-27T00:23:54;95822.28;;;5.89;69.95
29247;BME280;16272;48.188;9.964;2023-04-27T00:26:20;95819.28;;;5.94;70.55
29247;BME280;16272;48.188;9.964;2023-04-27T00:28:46;95811.97;;;5.86;71.61
29247;BME280;16272;48.188;9.964;2023-04-27T00:31:12;95814.16;;;5.58;73.23
29247;BME280;16272;48.188;9.964;2023-04-27T00:33:37;95811.03;;;5.53;75.15
29247;BME280;16272;48.188;9.964;2023-04-27T00:36:02;95808.34;;;5.87;75.02
29247;BME280;16272;48.188;9.964;2023-04-27T00:38:29;95815.44;;;5.75;74.53
29247;BME280;16272;48.188;9.964;2023-04-27T00:41:01;95812.69;;;5.77;73.84
29247;BME280;16272;48.188;9.964;2023-04-27T00:43:27;95818.72;;;5.56;74.55
29247;BME280;16272;48.188;9.964;2023-04-27T00:45:52;95809.09;;;5.89;73.34
29247;BME280;16272;48.188;9.964;2023-04-27T00:48:17;95804.78;;;5.99;72.41
29247;BME280;16272;48.188;9.964;2023-04-27T00:50:43;95809.34;;;5.97;71.68
29247;BME280;16272;48.188;9.964;2023-04-27T00:53:08;95816.16;;;6.00;71.13
29247;BME280;16272;48.188;9.964;2023-04-27T00:55:33;95820.66;;;6.20;71.15
29247;BME280;16272;48.188;9.964;2023-04-27T00:57:59;95824.91;;;5.89;74.32
29247;BME280;16272;48.188;9.964;2023-04-27T01:00:24;95824.56;;;5.71;74.87
29247;BME280;16272;48.188;9.964;2023-04-27T01:02:51;95825.41;;;5.71;74.66
29247;BME280;16272;48.188;9.964;2023-04-27T01:05:17;95817.72;;;5.68;75.23
29247;BME280;16272;48.188;9.964;2023-04-27T01:07:43;95821.09;;;5.48;75.67
29247;BME280;16272;48.188;9.964;2023-04-27T01:10:08;95816.06;;;5.56;75.08
29247;BME280;16272;48.188;9.964;2023-04-27T01:12:34;95816.06;;;5.45;75.86
29247;BME280;16272;48.188;9.964;2023-04-27T01:14:59;95815.84;;;5.37;76.31
29247;BME280;16272;48.188;9.964;2023-04-27T01:17:25;95820.88;;;5.40;76.14
29247;BME280;16272;48.188;9.964;2023-04-27T01:19:50;95817.00;;;5.44;76.13
29247;BME280;16272;48.188;9.964;2023-04-27T01:22:19;95816.03;;;5.11;77.81
29247;BME280;16272;48.188;9.964;2023-04-27T01:24:45;95818.00;;;5.31;76.13
29247;BME280;16272;48.188;9.964;2023-04-27T01:27:11;95801.22;;;5.44;74.63
29247;BME280;16272;48.188;9.964;2023-04-27T01:29:37;95804.94;;;5.41;74.79
29247;BME280;16272;48.188;9.964;2023-04-27T01:32:02;95806.22;;;5.24;74.99
29247;BME280;16272;48.188;9.964;2023-04-27T01:34:28;95811.38;;;5.37;74.82
29247;BME280;16272;48.188;9.964;2023-04-27T01:36:53;95811.50;;;5.69;72.04
29247;BME280;16272;48.188;9.964;2023-04-27T01:39:18;95817.59;;;5.70;71.56
29247;BME280;16272;48.188;9.964;2023-04-27T01:41:44;95805.28;;;5.59;72.05
29247;BME280;16272;48.188;9.964;2023-04-27T01:44:09;95815.34;;;5.65;70.71
29247;BME280;16272;48.188;9.964;2023-04-27T01:46:36;95816.31;;;5.53;71.73
29247;BME280;16272;48.188;9.964;2023-04-27T01:49:01;95823.03;;;5.34;71.14
29247;BME280;16272;48.188;9.964;2023-04-27T01:51:26;95824.91;;;5.55;70.30
29247;BME280;16272;48.188;9.964;2023-04-27T01:53:52;95826.84;;;5.64;70.16
29247;BME280;16272;48.188;9.964;2023-04-27T01:56:17;95829.38;;;5.55;70.50
29247;BME280;16272;48.188;9.964;2023-04-27T01:58:42;95830.41;;;5.18;71.90
29247;BME280;16272;48.188;9.964;2023-04-27T02:01:08;95835.09;;;5.26;71.35
29247;BME280;16272;48.188;9.964;2023-04-27T02:03:33;95833.66;;;5.33;70.28
29247;BME280;16272;48.188;9.964;2023-04-27T02:05:58;95833.06;;;5.41;70.40
29247;BME280;16272;48.188;9.964;2023-04-27T02:08:24;95831.88;;;5.33;70.18
29247;BME280;16272;48.188;9.964;2023-04-27T02:10:49;95832.78;;;5.10;72.28
29247;BME280;16272;48.188;9.964;2023-04-27T02:13:14;95831.63;;;4.78;73.19
29247;BME280;16272;48.188;9.964;2023-04-27T02:15:40;95835.53;;;4.62;74.48
29247;BME280;16272;48.188;9.964;2023-04-27T02:18:05;95838.47;;;4.81;73.69
29247;BME280;16272;48.188;9.964;2023-04-27T02:20:31;95838.38;;;4.94;72.33
29247;BME280;16272;48.188;9.964;2023-04-27T02:22:57;95841.31;;;4.78;73.21
29247;BME280;16272;48.188;9.964;2023-04-27T02:25:22;95845.56;;;4.56;74.52
29247;BME280;16272;48.188;9.964;2023-04-27T02:27:47;95846.66;;;4.30;74.66
29247;BME280;16272;48.188;9.964;2023-04-27T02:30:13;95837.47;;;4.35;75.38
29247;BME280;16272;48.188;9.964;2023-04-27T02:32:38;95841.44;;;4.17;74.89
29247;BME280;16272;48.188;9.964;2023-04-27T02:35:05;95852.38;;;4.11;75.62
29247;BME280;16272;48.188;9.964;2023-04-27T02:37:31;95852.81;;;4.04;75.84
29247;BME280;16272;48.188;9.964;2023-04-27T02:39:57;95853.84;;;4.15;75.83
29247;BME280;16272;48.188;9.964;2023-04-27T02:42:22;95852.28;;;4.36;74.28
29247;BME280;16272;48.188;9.964;2023-04-27T02:44:48;95851.31;;;4.37;72.69
29247;BME280;16272;48.188;9.964;2023-04-27T02:47:13;95849.66;;;4.12;73.38
29247;BME280;16272;48.188;9.964;2023-04-27T02:49:38;95846.13;;;4.00;76.16
29247;BME280;16272;48.188;9.964;2023-04-27T02:52:05;95843.59;;;3.99;75.52
29247;BME280;16272;48.188;9.964;2023-04-27T02:54:30;95853.06;;;3.89;76.45
29247;BME280;16272;48.188;9.964;2023-04-27T02:56:55;95857.81;;;4.20;76.21
29247;BME280;16272;48.188;9.964;2023-04-27T02:59:21;95866.88;;;4.16;76.69
29247;BME280;16272;48.188;9.964;2023-04-27T03:01:46;95872.31;;;4.26;75.68
29247;BME280;16272;48.188;9.964;2023-04-27T03:04:12;95862.97;;;4.46;75.11
29247;BME280;16272;48.188;9.964;2023-04-27T03:06:40;95858.22;;;4.51;74.22
29247;BME280;16272;48.188;9.964;2023-04-27T03:09:06;95851.53;;;4.58;72.92
29247;BME280;16272;48.188;9.964;2023-04-27T03:11:31;95853.00;;;4.38;74.37
29247;BME280;16272;48.188;9.964;2023-04-27T03:13:57;95852.13;;;4.27;75.56
29247;BME280;16272;48.188;9.964;2023-04-27T03:16:22;95854.81;;;4.38;76.11
29247;BME280;16272;48.188;9.964;2023-04-27T03:18:47;95855.66;;;4.38;76.46
29247;BME280;16272;48.188;9.964;2023-04-27T03:21:13;95854.22;;;4.46;75.69
29247;BME280;16272;48.188;9.964;2023-04-27T03:23:40;95847.31;;;4.45;76.11
29247;BME280;16272;48.188;9.964;2023-04-27T03:26:07;95858.72;;;4.56;74.71
29247;BME280;16272;48.188;9.964;2023-04-27T03:28:32;95857.66;;;4.35;75.22
29247;BME280;16272;48.188;9.964;2023-04-27T03:30:58;95865.94;;;4.41;76.64
29247;BME280;16272;48.188;9.964;2023-04-27T03:33:24;95861.06;;;4.48;75.27
29247;BME280;16272;48.188;9.964;2023-04-27T03:35:55;95860.75;;;4.53;75.22
29247;BME280;16272;48.188;9.964;2023-04-27T03:38:21;95860.56;;;4.43;76.69
29247;BME280;16272;48.188;9.964;2023-04-27T03:40:47;95861.94;;;4.36;75.61
29247;BME280;16272;48.188;9.964;2023-04-27T03:43:12;95856.03;;;4.21;76.64
29247;BME280;16272;48.188;9.964;2023-04-27T03:45:37;95862.06;;;4.34;77.47
29247;BME280;16272;48.188;9.964;2023-04-27T03:48:03;95858.28;;;4.63;77.04
29247;BME280;16272;48.188;9.964;2023-04-27T03:50:28;95866.59;;;4.56;77.16
29247;BME280;16272;48.188;9.964;2023-04-27T03:52:53;95877.69;;;4.49;77.99
29247;BME280;16272;48.188;9.964;2023-04-27T03:55:19;95876.34;;;4.43;77.99
29247;BME280;16272;48.188;9.964;2023-04-27T03:57:45;95872.91;;;4.78;77.15
29247;BME280;16272;48.188;9.964;2023-04-27T04:00:10;95872.03;;;5.13;75.91
29247;BME280;16272;48.188;9.964;2023-04-27T04:02:37;95870.88;;;5.17;75.25
29247;BME280;16272;48.188;9.964;2023-04-27T04:05:02;95877.34;;;4.77;76.76
29247;BME280;16272;48.188;9.964;2023-04-27T04:07:27;95883.44;;;4.78;78.15
29247;BME280;16272;48.188;9.964;2023-04-27T04:09:53;95877.13;;;4.92;77.17
29247;BME280;16272;48.188;9.964;2023-04-27T04:12:18;95880.94;;;4.88;77.37
29247;BME280;16272;48.188;9.964;2023-04-27T04:14:43;95879.91;;;4.66;78.00
29247;BME280;16272;48.188;9.964;2023-04-27T04:17:12;95884.50;;;5.22;76.47
29247;BME280;16272;48.188;9.964;2023-04-27T04:19:38;95889.53;;;5.14;75.99
29247;BME280;16272;48.188;9.964;2023-04-27T04:22:03;95890.50;;;5.24;76.35
29247;BME280;16272;48.188;9.964;2023-04-27T04:24:29;95893.16;;;5.47;75.47
29247;BME280;16272;48.188;9.964;2023-04-27T04:26:54;95894.25;;;5.56;74.32
29247;BME280;16272;48.188;9.964;2023-04-27T04:29:20;95891.50;;;5.57;74.94
29247;BME280;16272;48.188;9.964;2023-04-27T04:31:46;95896.56;;;5.02;77.26
29247;BME280;16272;48.188;9.964;2023-04-27T04:34:11;95881.56;;;5.38;75.38
29247;BME280;16272;48.188;9.964;2023-04-27T04:36:36;95884.81;;;5.53;76.16
29247;BME280;16272;48.188;9.964;2023-04-27T04:39:02;95884.81;;;5.53;75.60
29247;BME280;16272;48.188;9.964;2023-04-27T04:41:28;95893.91;;;5.71;75.71
29247;BME280;16272;48.188;9.964;2023-04-27T04:43:54;95896.53;;;5.60;75.37
29247;BME280;16272;48.188;9.964;2023-04-27T04:46:19;95902.19;;;5.89;74.46
29247;BME280;16272;48.188;9.964;2023-04-27T04:48:46;95894.84;;;5.93;73.58
29247;BME280;16272;48.188;9.964;2023-04-27T04:51:12;95900.88;;;5.73;74.09
29247;BME280;16272;48.188;9.964;2023-04-27T04:53:37;95904.94;;;5.77;74.74
29247;BME280;16272;48.188;9.964;2023-04-27T04:56:10;95904.94;;;5.77;75.30
29247;BME280;16272;48.188;9.964;2023-04-27T04:58:36;95902.75;;;5.70;74.67
29247;BME280;16272;48.188;9.964;2023-04-27T05:01:02;95898.75;;;6.00;75.09
29247;BME280;16272;48.188;9.964;2023-04-27T05:03:27;95907.91;;;5.49;76.19
29247;BME280;16272;48.188;9.964;2023-04-27T05:05:53;95907.78;;;5.74;75.47
29247;BME280;16272;48.188;9.964;2023-04-27T05:08:18;95913.69;;;6.00;75.50
29247;BME280;16272;48.188;9.964;2023-04-27T05:10:53;95911.19;;;5.98;74.90
29247;BME280;16272;48.188;9.964;2023-04-27T05:13:19;95912.81;;;5.65;75.44
29247;BME280;16272;48.188;9.964;2023-04-27T05:15:45;95907.81;;;5.85;74.80
29247;BME280;16272;48.188;9.964;2023-04-27T05:18:10;95905.16;;;6.30;74.67
29247;BME280;16272;48.188;9.964;2023-04-27T05:20:36;95901.34;;;5.89;75.49
29247;BME280;16272;48.188;9.964;2023-04-27T05:23:02;95902.09;;;6.02;75.38
29247;BME280;16272;48.188;9.964;2023-04-27T05:25:31;95903.00;;;6.35;74.43
29247;BME280;16272;48.188;9.964;2023-04-27T05:27:56;95905.41;;;6.27;73.91
29247;BME280;16272;48.188;9.964;2023-04-27T05:30:22;95906.13;;;7.05;72.85
29247;BME280;16272;48.188;9.964;2023-04-27T05:32:47;95908.28;;;7.00;73.28
29247;BME280;16272;48.188;9.964;2023-04-27T05:35:13;95914.16;;;6.83;74.43
29247;BME280;16272;48.188;9.964;2023-04-27T05:37:38;95910.22;;;6.98;73.35
29247;BME280;16272;48.188;9.964;2023-04-27T05:40:04;95898.66;;;6.46;73.28
29247;BME280;16272;48.188;9.964;2023-04-27T05:42:30;95904.16;;;6.42;73.83
29247;BME280;16272;48.188;9.964;2023-04-27T05:44:55;95906.81;;;6.86;74.26
29247;BME280;16272;48.188;9.964;2023-04-27T05:47:21;95902.94;;;6.58;74.29
29247;BME280;16272;48.188;9.964;2023-04-27T05:49:52;95904.59;;;6.59;74.61
29247;BME280;16272;48.188;9.964;2023-04-27T05:52:18;95897.72;;;7.00;73.02
29247;BME280;16272;48.188;9.964;2023-04-27T05:54:48;95903.88;;;7.01;72.40
29247;BME280;16272;48.188;9.964;2023-04-27T05:57:14;95906.50;;;7.64;70.52
29247;BME280;16272;48.188;9.964;2023-04-27T05:59:41;95906.78;;;7.91;69.29
29247;BME280;16272;48.188;9.964;2023-04-27T06:02:07;95907.03;;;8.19;68.76
29247;BME280;16272;48.188;9.964;2023-04-27T06:04:32;95916.75;;;8.09;68.49
29247;BME280;16272;48.188;9.964;2023-04-27T06:07:00;95911.59;;;8.48;68.84
29247;BME280;16272;48.188;9.964;2023-04-27T06:09:29;95917.09;;;7.95;69.24
29247;BME280;16272;48.188;9.964;2023-04-27T06:11:55;95919.72;;;7.95;69.42
29247;BME280;16272;48.188;9.964;2023-04-27T06:14:22;95928.97;;;8.00;69.32
29247;BME280;16272;48.188;9.964;2023-04-27T06:16:48;95919.84;;;8.55;67.19
29247;BME280;16272;48.188;9.964;2023-04-27T06:19:13;95914.44;;;8.76;66.40
29247;BME280;16272;48.188;9.964;2023-04-27T06:21:38;95922.22;;;8.68;62.31
29247;BME280;16272;48.188;9.964;2023-04-27T06:24:04;95928.53;;;8.86;63.67
29247;BME280;16272;48.188;9.964;2023-04-27T06:26:29;95931.53;;;8.21;64.73
29247;BME280;16272;48.188;9.964;2023-04-27T06:28:55;95931.88;;;8.98;66.20
29247;BME280;16272;48.188;9.964;2023-04-27T06:31:20;95929.78;;;9.31;63.44
29247;BME280;16272;48.188;9.964;2023-04-27T06:33:45;95930.13;;;9.75;62.26
29247;BME280;16272;48.188;9.964;2023-04-27T06:36:11;95929.50;;;9.44;63.91
29247;BME280;16272;48.188;9.964;2023-04-27T06:38:36;95926.97;;;9.52;64.49
29247;BME280;16272;48.188;9.964;2023-04-27T06:41:01;95925.75;;;9.27;66.30
29247;BME280;16272;48.188;9.964;2023-04-27T06:43:28;95920.31;;;9.18;66.01
29247;BME280;16272;48.188;9.964;2023-04-27T06:45:53;95927.41;;;10.04;65.93
29247;BME280;16272;48.188;9.964;2023-04-27T06:48:18;95937.84;;;9.59;63.01
29247;BME280;16272;48.188;9.964;2023-04-27T06:50:43;95933.97;;;9.53;64.22
29247;BME280;16272;48.188;9.964;2023-04-27T06:53:09;95931.38;;;9.90;66.51
29247;BME280;16272;48.188;9.964;2023-04-27T06:55:35;95935.41;;;10.32;63.42
29247;BME280;16272;48.188;9.964;2023-04-27T06:58:01;95932.56;;;9.49;63.08
29247;BME280;16272;48.188;9.964;2023-04-27T07:00:27;95934.84;;;10.38;64.75
29247;BME280;16272;48.188;9.964;2023-04-27T07:02:53;95938.03;;;10.70;61.65
29247;BME280;16272;48.188;9.964;2023-04-27T07:05:18;95935.31;;;10.79;60.30
29247;BME280;16272;48.188;9.964;2023-04-27T07:07:43;95931.97;;;10.77;60.73
29247;BME280;16272;48.188;9.964;2023-04-27T07:10:09;95937.88;;;10.43;61.00
29247;BME280;16272;48.188;9.964;2023-04-27T07:12:35;95934.00;;;10.83;59.53
29247;BME280;16272;48.188;9.964;2023-04-27T07:15:01;95933.84;;;11.57;60.21
29247;BME280;16272;48.188;9.964;2023-04-27T07:17:28;95929.66;;;11.72;59.03
29247;BME280;16272;48.188;9.964;2023-04-27T07:19:53;95935.03;;;11.36;58.81
29247;BME280;16272;48.188;9.964;2023-04-27T07:22:19;95937.69;;;11.00;60.89
29247;BME280;16272;48.188;9.964;2023-04-27T07:24:44;95934.75;;;11.66;61.78
29247;BME280;16272;48.188;9.964;2023-04-27T07:27:10;95928.78;;;11.46;58.99
29247;BME280;16272;48.188;9.964;2023-04-27T07:29:35;95930.91;;;12.39;61.49
29247;BME280;16272;48.188;9.964;2023-04-27T07:32:04;95934.47;;;11.95;58.60
29247;BME280;16272;48.188;9.964;2023-04-27T07:34:29;95931.84;;;11.77;57.44
29247;BME280;16272;48.188;9.964;2023-04-27T07:36:55;95934.16;;;12.24;60.40
29247;BME280;16272;48.188;9.964;2023-04-27T07:39:22;95938.34;;;12.27;59.52
29247;BME280;16272;48.188;9.964;2023-04-27T07:41:48;95940.44;;;12.15;56.35
29247;BME280;16272;48.188;9.964;2023-04-27T07:44:15;95938.97;;;12.21;56.63
29247;BME280;16272;48.188;9.964;2023-04-27T07:46:41;95936.78;;;12.59;58.55
29247;BME280;16272;48.188;9.964;2023-04-27T07:49:06;95933.56;;;12.39;57.22
29247;BME280;16272;48.188;9.964;2023-04-27T07:51:31;95927.13;;;13.17;57.13
29247;BME280;16272;48.188;9.964;2023-04-27T07:53:58;95928.41;;;12.88;56.36
29247;BME280;16272;48.188;9.964;2023-04-27T07:56:24;95931.94;;;12.54;56.09
29247;BME280;16272;48.188;9.964;2023-04-27T07:58:49;95921.03;;;12.82;58.71
29247;BME280;16272;48.188;9.964;2023-04-27T08:01:14;95919.06;;;12.84;58.19
29247;BME280;16272;48.188;9.964;2023-04-27T08:03:40;95914.97;;;12.55;55.28
29247;BME280;16272;48.188;9.964;2023-04-27T08:06:05;95916.38;;;12.76;56.61
29247;BME280;16272;48.188;9.964;2023-04-27T08:08:31;95920.16;;;13.90;58.21
29247;BME280;16272;48.188;9.964;2023-04-27T08:10:56;95925.78;;;14.03;56.20
29247;BME280;16272;48.188;9.964;2023-04-27T08:13:21;95918.72;;;14.27;51.59
29247;BME280;16272;48.188;9.964;2023-04-27T08:15:47;95920.69;;;14.33;51.36
29247;BME280;16272;48.188;9.964;2023-04-27T08:18:12;95920.75;;;14.73;50.29
29247;BME280;16272;48.188;9.964;2023-04-27T08:20:37;95915.94;;;14.68;50.75
29247;BME280;16272;48.188;9.964;2023-04-27T08:23:03;95917.84;;;14.34;51.33
29247;BME280;16272;48.188;9.964;2023-04-27T08:25:28;95922.28;;;14.67;55.97
29247;BME280;16272;48.188;9.964;2023-04-27T08:27:53;95913.09;;;15.01;54.28
29247;BME280;16272;48.188;9.964;2023-04-27T08:30:19;95912.56;;;14.74;54.84
29247;BME280;16272;48.188;9.964;2023-04-27T08:32:45;95908.19;;;14.81;52.07
29247;BME280;16272;48.188;9.964;2023-04-27T08:35:11;95918.66;;;14.51;51.07
29247;BME280;16272;48.188;9.964;2023-04-27T08:37:37;95905.19;;;14.76;48.01
29247;BME280;16272;48.188;9.964;2023-04-27T08:40:04;95907.75;;;15.24;50.36
29247;BME280;16272;48.188;9.964;2023-04-27T08:42:30;95910.56;;;15.92;46.13
29247;BME280;16272;48.188;9.964;2023-04-27T08:44:55;95901.06;;;16.04;49.26
29247;BME280;16272;48.188;9.964;2023-04-27T08:47:21;95904.03;;;15.02;48.58
29247;BME280;16272;48.188;9.964;2023-04-27T08:49:46;95898.84;;;15.93;47.63
29247;BME280;16272;48.188;9.964;2023-04-27T08:52:15;95904.31;;;16.29;47.37
29247;BME280;16272;48.188;9.964;2023-04-27T08:54:41;95897.00;;;16.23;47.31
29247;BME280;16272;48.188;9.964;2023-04-27T08:57:10;95900.78;;;16.59;47.64
29247;BME280;16272;48.188;9.964;2023-04-27T08:59:36;95888.03;;;17.34;45.39
29247;BME280;16272;48.188;9.964;2023-04-27T09:02:02;95893.56;;;15.61;46.69
29247;BME280;16272;48.188;9.964;2023-04-27T09:04:38;95887.69;;;17.00;43.58
29247;BME280;16272;48.188;9.964;2023-04-27T09:07:14;95897.03;;;16.38;48.38
29247;BME280;16272;48.188;9.964;2023-04-27T09:09:40;95887.28;;;16.52;46.17
29247;BME280;16272;48.188;9.964;2023-04-27T09:12:19;95885.09;;;17.50;44.55
29247;BME280;16272;48.188;9.964;2023-04-27T09:14:55;95880.69;;;17.42;42.23
29247;BME280;16272;48.188;9.964;2023-04-27T09:17:28;95878.28;;;17.54;43.47
29247;BME280;16272;48.188;9.964;2023-04-27T09:20:08;95878.94;;;16.77;42.91
29247;BME280;16272;48.188;9.964;2023-04-27T09:22:44;95878.63;;;16.50;42.77
29247;BME280;16272;48.188;9.964;2023-04-27T09:25:30;95885.56;;;17.82;44.31
29247;BME280;16272;48.188;9.964;2023-04-27T09:27:57;95881.06;;;17.39;41.80
29247;BME280;16272;48.188;9.964;2023-04-27T09:30:24;95884.13;;;17.36;49.60
29247;BME280;16272;48.188;9.964;2023-04-27T09:32:50;95878.69;;;18.71;45.85
29247;BME280;16272;48.188;9.964;2023-04-27T09:35:24;95876.00;;;18.36;40.31
29247;BME280;16272;48.188;9.964;2023-04-27T09:37:50;95871.81;;;17.20;42.01
29247;BME280;16272;48.188;9.964;2023-04-27T09:40:18;95867.38;;;17.13;43.69
29247;BME280;16272;48.188;9.964;2023-04-27T09:42:45;95874.41;;;18.42;44.59
29247;BME280;16272;48.188;9.964;2023-04-27T09:45:10;95868.09;;;18.63;45.45
29247;BME280;16272;48.188;9.964;2023-04-27T09:47:37;95876.28;;;18.13;41.60
29247;BME280;16272;48.188;9.964;2023-04-27T09:50:04;95868.72;;;17.95;50.27
29247;BME280;16272;48.188;9.964;2023-04-27T09:52:30;95863.78;;;17.98;46.35
29247;BME280;16272;48.188;9.964;2023-04-27T09:54:56;95862.94;;;17.91;42.91
29247;BME280;16272;48.188;9.964;2023-04-27T09:57:46;95866.97;;;18.92;42.16
29247;BME280;16272;48.188;9.964;2023-04-27T10:08:58;95858.00;;;18.78;44.26
29247;BME280;16272;48.188;9.964;2023-04-27T10:11:39;95873.88;;;17.90;41.60
29247;BME280;16272;48.188;9.964;2023-04-27T10:14:07;95855.50;;;19.38;40.87
29247;BME280;16272;48.188;9.964;2023-04-27T10:16:49;95861.09;;;19.43;37.73
29247;BME280;16272;48.188;9.964;2023-04-27T10:19:16;95857.88;;;18.93;39.95
29247;BME280;16272;48.188;9.964;2023-04-27T10:24:16;95861.88;;;16.99;41.44
29247;BME280;16272;48.188;9.964;2023-04-27T10:26:45;95857.69;;;18.11;41.54
29247;BME280;16272;48.188;9.964;2023-04-27T10:29:11;95852.94;;;17.85;39.47
29247;BME280;16272;48.188;9.964;2023-04-27T10:31:44;95865.19;;;18.23;41.35
29247;BME280;16272;48.188;9.964;2023-04-27T10:34:16;95860.78;;;18.50;42.89
29247;BME280;16272;48.188;9.964;2023-04-27T10:36:42;95858.25;;;18.35;40.07
29247;BME280;16272;48.188;9.964;2023-04-27T10:39:18;95859.47;;;18.32;41.25
29247;BME280;16272;48.188;9.964;2023-04-27T10:41:55;95857.59;;;17.98;41.08
29247;BME280;16272;48.188;9.964;2023-04-27T10:44:26;95858.88;;;17.52;42.85
29247;BME280;16272;48.188;9.964;2023-04-27T10:46:56;95861.75;;;17.79;42.68
29247;BME280;16272;48.188;9.964;2023-04-27T10:49:22;95860.09;;;17.50;42.74
29247;BME280;16272;48.188;9.964;2023-04-27T10:51:49;95863.44;;;17.80;43.28
29247;BME280;16272;48.188;9.964;2023-04-27T10:54:14;95860.31;;;17.76;41.87
29247;BME280;16272;48.188;9.964;2023-04-27T10:56:40;95865.19;;;18.23;44.89
29247;BME280;16272;48.188;9.964;2023-04-27T10:59:05;95859.97;;;18.14;40.98
29247;BME280;16272;48.188;9.964;2023-04-27T11:01:31;95857.53;;;17.63;42.73
29247;BME280;16272;48.188;9.964;2023-04-27T11:03:58;95859.25;;;18.82;41.90
29247;BME280;16272;48.188;9.964;2023-04-27T11:06:24;95854.88;;;18.68;40.54
29247;BME280;16272;48.188;9.964;2023-04-27T11:08:49;95847.34;;;19.05;41.02
29247;BME280;16272;48.188;9.964;2023-04-27T11:11:15;95859.44;;;19.56;41.47
29247;BME280;16272;48.188;9.964;2023-04-27T11:13:42;95842.09;;;20.64;38.30
29247;BME280;16272;48.188;9.964;2023-04-27T11:16:08;95850.13;;;19.58;37.36
29247;BME280;16272;48.188;9.964;2023-04-27T11:18:36;95849.28;;;20.05;39.94
29247;BME280;16272;48.188;9.964;2023-04-27T11:21:21;95849.63;;;18.46;46.25
29247;BME280;16272;48.188;9.964;2023-04-27T11:23:47;95856.81;;;18.04;42.65
29247;BME280;16272;48.188;9.964;2023-04-27T11:26:18;95844.91;;;17.63;43.70
29247;BME280;16272;48.188;9.964;2023-04-27T11:29:05;95851.00;;;17.51;44.81
29247;BME280;16272;48.188;9.964;2023-04-27T11:31:52;95849.53;;;18.33;46.18
29247;BME280;16272;48.188;9.964;2023-04-27T11:34:20;95853.09;;;18.40;45.38
29247;BME280;16272;48.188;9.964;2023-04-27T11:36:59;95846.16;;;18.17;47.24
29247;BME280;16272;48.188;9.964;2023-04-27T11:39:32;95843.63;;;18.09;41.66
29247;BME280;16272;48.188;9.964;2023-04-27T11:44:53;95849.25;;;18.21;43.38
29247;BME280;16272;48.188;9.964;2023-04-27T11:47:19;95853.09;;;18.88;41.96
29247;BME280;16272;48.188;9.964;2023-04-27T11:49:47;95841.81;;;18.58;45.64
29247;BME280;16272;48.188;9.964;2023-04-27T11:52:12;95849.41;;;18.96;42.56
29247;BME280;16272;48.188;9.964;2023-04-27T11:54:38;95840.72;;;19.07;41.73
29247;BME280;16272;48.188;9.964;2023-04-27T11:57:06;95844.47;;;19.20;42.06
29247;BME280;16272;48.188;9.964;2023-04-27T11:59:32;95842.03;;;19.72;42.03
29247;BME280;16272;48.188;9.964;2023-04-27T12:01:57;95847.53;;;18.48;42.61
29247;BME280;16272;48.188;9.964;2023-04-27T12:04:22;95842.81;;;19.05;42.72
29247;BME280;16272;48.188;9.964;2023-04-27T12:06:48;95843.44;;;18.59;39.57
29247;BME280;16272;48.188;9.964;2023-04-27T12:09:14;95844.16;;;18.33;46.20
29247;BME280;16272;48.188;9.964;2023-04-27T12:11:41;95835.03;;;18.27;42.90
29247;BME280;16272;48.188;9.964;2023-04-27T12:14:06;95835.34;;;18.11;44.44
29247;BME280;16272;48.188;9.964;2023-04-27T12:16:32;95844.78;;;18.00;43.46
29247;BME280;16272;48.188;9.964;2023-04-27T12:18:58;95842.75;;;18.02;46.35
29247;BME280;16272;48.188;9.964;2023-04-27T12:21:23;95835.56;;;18.58;43.44
29247;BME280;16272;48.188;9.964;2023-04-27T12:23:48;95835.38;;;19.41;43.54
29247;BME280;16272;48.188;9.964;2023-04-27T12:26:13;95832.03;;;20.19;46.38
29247;BME280;16272;48.188;9.964;2023-04-27T12:28:39;95834.78;;;20.78;44.91
29247;BME280;16272;48.188;9.964;2023-04-27T12:31:04;95825.06;;;20.56;39.17
29247;BME280;16272;48.188;9.964;2023-04-27T12:33:30;95828.56;;;19.32;41.26
29247;BME280;16272;48.188;9.964;2023-04-27T12:35:56;95826.47;;;19.87;42.55
29247;BME280;16272;48.188;9.964;2023-04-27T12:38:21;95831.88;;;19.80;40.17
29247;BME280;16272;48.188;9.964;2023-04-27T12:40:47;95830.03;;;19.81;43.26
29247;BME280;16272;48.188;9.964;2023-04-27T12:43:12;95829.72;;;20.29;39.61
29247;BME280;16272;48.188;9.964;2023-04-27T12:45:37;95820.78;;;20.42;39.27
29247;BME280;16272;48.188;9.964;2023-04-27T12:48:03;95826.28;;;19.82;40.21
29247;BME280;16272;48.188;9.964;2023-04-27T12:50:29;95828.28;;;19.00;43.90
29247;BME280;16272;48.188;9.964;2023-04-27T12:52:55;95825.31;;;18.81;38.71
29247;BME280;16272;48.188;9.964;2023-04-27T12:55:20;95823.94;;;18.44;43.47
29247;BME280;16272;48.188;9.964;2023-04-27T12:57:45;95822.56;;;17.56;43.97
29247;BME280;16272;48.188;9.964;2023-04-27T13:00:11;95821.31;;;17.59;45.75
29247;BME280;16272;48.188;9.964;2023-04-27T13:02:37;95811.75;;;19.09;42.85
29247;BME280;16272;48.188;9.964;2023-04-27T13:05:02;95817.91;;;18.83;43.63
29247;BME280;16272;48.188;9.964;2023-04-27T13:07:28;95814.19;;;18.43;39.28
29247;BME280;16272;48.188;9.964;2023-04-27T13:09:54;95815.00;;;18.85;40.11
29247;BME280;16272;48.188;9.964;2023-04-27T13:12:19;95802.97;;;18.81;38.42
29247;BME280;16272;48.188;9.964;2023-04-27T13:14:44;95812.03;;;18.66;45.12
29247;BME280;16272;48.188;9.964;2023-04-27T13:17:11;95813.78;;;18.94;40.47